17:00
Airports
History
Links
Donate
Help keep this website running!
PayPal
Bitcoin
This page is community maintained. The information is intended for PC simulator navigation or reference.
Always use approved charts for navigation.
ROTM
FUTENMA MCAS
FUTENMA MCAS (ROTM)
Ginowan-shi, Okinawa Prefecture, Japan (901)
(C)6
Lat/Lng:26° 16' 26.88" N / 127° 45' 22.56" E
26.274132 / 127.756267
Elevation:247'ft / 75mMSL
ID / ICAO:ROTM
Runways:1
Longest:06-24
Asphalt 2,800m / 9,187ft
Airport use:Military,
Controlled:Yes
METAR16:00 GMT 2017-12-14
Altimeter: 30.15
Visibility: 10.0 statute miles
Wind: 3 knots (from 060°)
Temp: 16°c / 61°f
Humidity: 63.1%

METAR: ROTM 141600Z AUTO 06003KT 10SM CLR 16/09 A3015 RMK AO2 SLP198 T01560089 $

(Powered by phpweather)
Airport Radio Frequencies
Ground: 122.8
Tower: 123.6
Nearby VORs <50NM
Nearby NDBs
Runway 06 / 24
Dimensions:2800.3 x 45.7m 9187' x 150'ft
Surface:Asphalt
Edge Lights:High intensity
Runway 06 [A]Runway 24 [B]
Heading:054°TH 234°TH
Lat:
Lng:
26° 16' 0.78"N
127° 44' 41.24"E
26° 16' 52.97"N
127° 46' 3.88"E
ALS:SALS
TDZ:Yes, lighted
User Notes and Comments
26° 16' 26.88" N / 127° 45' 22.56" E
Distance To
Airport ID:
Nearby Airports
(C) KADENA AB 5.7 NM
RODN ( WX ) N
(C) NAHA 8.7 NM
ROAH ( WX ) SW 231°
(C) Kerama 29.6 NM
ROKR WSW 255°
(C) IE JIMA 31.0 NM
RORE N
(C) IE SHIMA AUX AB 31.3 NM
RODE N
(C) Aguni 38.5 NM
RORA NW 304°
(C) KUMEJIMA 64.9 NM
ROKJ ( WX ) W 275°
VFR Chart
Flight Planning at SkyVector.com